Time;durP1;ratioP1;P1;durP2;ratioP2;P2;SDS_P1;SDS_P2;PMS_P1;PMS_P2;Temp;Humidity;BMP_temperature;BMP_pressure;BME280_temperature;BME280_humidity;BME280_pressure;Samples;Min_cycle;Max_cycle;Signal;HPM_P1;HPM_P2
2022/05/12 00:00:39;;;;;;;8.68;2.20;;;;;;;4.26;100.00;101069.09;5045228;28;20112;-83
2022/05/12 00:03:06;;;;;;;6.43;2.10;;;;;;;4.00;100.00;101039.34;5045589;28;20036;-82
2022/05/12 00:05:33;;;;;;;9.02;2.78;;;;;;;4.11;100.00;101076.53;5022069;28;20100;-82
2022/05/12 00:07:58;;;;;;;15.80;2.85;;;;;;;4.12;100.00;101084.38;5036807;28;20052;-82
2022/05/12 00:10:30;;;;;;;11.85;2.58;;;;;;;4.12;100.00;101088.88;5045863;28;20112;-83
2022/05/12 00:12:58;;;;;;;;;;;;;;;4.07;100.00;101083.06;5011742;28;20029;-83
2022/05/12 00:15:26;;;;;;;14.68;2.72;;;;;;;4.01;100.00;101092.41;5029309;28;19936;-82
2022/05/12 00:18:01;;;;;;;8.50;2.78;;;;;;;3.98;100.00;101090.00;5036163;28;20490;-82
2022/05/12 00:20:28;;;;;;;13.27;2.78;;;;;;;3.93;100.00;101085.03;5057831;28;20033;-82
2022/05/12 00:23:15;;;;;;;11.10;3.35;;;;;;;3.89;100.00;101083.63;5039637;28;20072;-82
2022/05/12 00:25:42;;;;;;;9.48;2.63;;;;;;;3.78;100.00;101086.28;5050847;28;20475;-82
2022/05/12 00:28:08;;;;;;;15.35;3.50;;;;;;;3.62;100.00;101080.50;5046120;28;20040;-82
2022/05/12 00:30:34;;;;;;;13.15;2.67;;;;;;;3.58;100.00;101084.41;5025780;28;20051;-82
2022/05/12 00:33:00;;;;;;;10.90;4.82;;;;;;;3.47;100.00;101071.97;5039241;28;20132;-82
2022/05/12 00:35:26;;;;;;;10.82;3.15;;;;;;;3.43;100.00;101068.69;5047339;28;20033;-82
2022/05/12 00:37:52;;;;;;;9.38;2.90;;;;;;;3.50;100.00;101087.66;5044527;28;20520;-81
2022/05/12 00:40:17;;;;;;;9.57;5.28;;;;;;;3.48;100.00;101076.31;5044730;28;20061;-82
2022/05/12 00:43:04;;;;;;;8.73;2.95;;;;;;;3.43;100.00;101081.97;5043676;28;20040;-82
2022/05/12 00:45:32;;;;;;;7.57;2.40;;;;;;;3.32;100.00;101071.34;5033679;28;20024;-83
2022/05/12 00:47:58;;;;;;;11.02;2.47;;;;;;;3.28;100.00;101077.88;5047813;28;20033;-83
2022/05/12 00:50:29;;;;;;;10.45;2.97;;;;;;;3.27;100.00;101082.34;5057902;28;20036;-83
2022/05/12 00:52:56;;;;;;;5.35;2.63;;;;;;;3.11;100.00;101076.53;5046464;28;20033;-82
2022/05/12 00:55:25;;;;;;;8.00;2.78;;;;;;;3.07;100.00;101078.59;5013930;28;20135;-82
2022/05/12 00:57:54;;;;;;;11.95;3.20;;;;;;;2.97;100.00;101069.66;5043401;28;20106;-82
2022/05/12 01:00:20;;;;;;;13.68;2.78;;;;;;;3.05;100.00;101082.34;5045965;28;20120;-82
2022/05/12 01:02:48;;;;;;;9.27;2.67;;;;;;;2.98;100.00;101071.34;5042204;28;20117;-83
2022/05/12 01:05:14;;;;;;;10.80;3.17;;;;;;;2.99;100.00;101083.66;5039367;28;20119;-82
2022/05/12 01:07:40;;;;;;;13.50;2.83;;;;;;;2.97;100.00;101087.41;5042722;28;20474;-82
2022/05/12 01:10:09;;;;;;;9.20;2.55;;;;;;;2.85;100.00;101076.75;5039242;28;20033;-83
2022/05/12 01:12:40;;;;;;;13.18;3.42;;;;;;;2.81;100.00;101080.63;5045485;28;20067;-82
2022/05/12 01:15:07;;;;;;;11.27;3.33;;;;;;;2.75;100.00;101080.22;5011152;28;20482;-83
2022/05/12 01:17:32;;;;;;;15.75;2.97;;;;;;;2.69;100.00;101078.03;5047579;28;20036;-83
2022/05/12 01:19:58;;;;;;;8.88;2.55;;;;;;;2.72;100.00;101091.09;5043487;28;20082;-82
2022/05/12 01:22:54;;;;;;;9.02;2.13;;;;;;;2.75;100.00;101096.16;5041297;28;20079;-82
2022/05/12 01:25:23;;;;;;;10.70;2.30;;;;;;;2.64;100.00;101059.81;5026077;28;20391;-81
2022/05/12 01:27:48;;;;;;;13.10;2.78;;;;;;;2.81;100.00;101082.44;5024689;28;20025;-82
2022/05/12 01:30:18;;;;;;;9.38;2.20;;;;;;;2.83;100.00;101084.00;5033596;28;20619;-82
2022/05/12 01:32:47;;;;;;;9.20;2.60;;;;;;;2.84;100.00;101085.69;5047298;28;20521;-81
2022/05/12 01:35:14;;;;;;;12.73;2.70;;;;;;;2.93;100.00;101083.28;5040787;28;20029;-83
2022/05/12 01:37:41;;;;;;;10.77;3.38;;;;;;;3.03;100.00;101087.75;5025064;28;20623;-81
2022/05/12 01:40:09;;;;;;;12.15;2.63;;;;;;;3.20;100.00;101081.16;5018102;28;20033;-82
2022/05/12 01:42:40;;;;;;;11.30;2.70;;;;;;;3.52;100.00;101099.03;5032460;28;20430;-82
2022/05/12 01:45:07;;;;;;;7.65;2.65;;;;;;;3.49;100.00;101064.69;5027673;28;20033;-82
2022/05/12 01:47:34;;;;;;;15.55;2.70;;;;;;;3.83;100.00;101094.75;5045654;28;20044;-82
2022/05/12 01:50:00;;;;;;;13.48;3.30;;;;;;;4.03;100.00;101095.78;5013950;28;20040;-82
2022/05/12 01:52:26;;;;;;;20.10;2.90;;;;;;;4.11;100.00;101097.84;5054300;28;20048;-81
2022/05/12 01:54:52;;;;;;;15.80;3.25;;;;;;;4.19;100.00;101088.25;5045240;28;20039;-82
2022/05/12 01:57:22;;;;;;;12.88;2.67;;;;;;;4.41;100.00;101095.28;5008768;28;20126;-82
2022/05/12 01:59:49;;;;;;;17.23;2.72;;;;;;;4.53;100.00;101097.91;5014847;28;20123;-82
2022/05/12 02:02:15;;;;;;;8.00;2.35;;;;;;;4.62;100.00;101097.13;5051957;28;20040;-82
2022/05/12 02:04:41;;;;;;;11.90;3.13;;;;;;;4.77;100.00;101100.34;5042369;28;20102;-81
2022/05/12 02:07:07;;;;;;;14.88;2.97;;;;;;;4.83;100.00;101100.63;5034187;28;20108;-82
2022/05/12 02:09:33;;;;;;;10.02;3.30;;;;;;;4.94;100.00;101093.56;5014291;28;20039;-82
2022/05/12 02:11:58;;;;;;;10.07;2.50;;;;;;;5.02;100.00;101091.06;5048440;28;20033;-83
2022/05/12 02:14:24;;;;;;;18.35;2.90;;;;;;;5.10;100.00;101090.44;5029186;28;20043;-82
2022/05/12 02:16:50;;;;;;;17.63;3.05;;;;;;;4.89;100.00;101053.97;5043082;28;20086;-83
2022/05/12 02:19:15;;;;;;;13.18;3.25;;;;;;;5.04;100.00;101087.31;5050314;28;20027;-81
2022/05/12 02:21:41;;;;;;;24.58;4.72;;;;;;;5.01;100.00;101087.56;5052185;28;20037;-82
2022/05/12 02:24:07;;;;;;;14.15;2.78;;;;;;;5.02;100.00;101101.75;5046544;28;20139;-83
2022/05/12 02:26:33;;;;;;;9.82;2.90;;;;;;;4.98;100.00;101093.19;5030152;28;20029;-83
2022/05/12 02:28:59;;;;;;;8.85;2.30;;;;;;;4.96;100.00;101083.63;5012004;28;20055;-82
2022/05/12 02:31:27;;;;;;;16.67;2.65;;;;;;;4.91;100.00;101085.84;5046520;28;20037;-83
2022/05/12 02:33:55;;;;;;;13.85;2.88;;;;;;;4.82;100.00;101082.13;5047070;28;20036;-82
2022/05/12 02:36:20;;;;;;;15.90;2.35;;;;;;;4.83;100.00;101084.66;5024593;28;20069;-82
2022/05/12 02:38:46;;;;;;;17.15;2.28;;;;;;;4.86;100.00;101088.88;5030293;28;20522;-82
2022/05/12 02:41:14;;;;;;;18.17;2.85;;;;;;;4.88;100.00;101083.44;5051147;28;20036;-82
2022/05/12 02:43:42;;;;;;;18.75;3.60;;;;;;;5.02;100.00;101089.25;5049844;28;20386;-83
2022/05/12 02:46:11;;;;;;;16.17;3.22;;;;;;;5.12;100.00;101070.66;5047606;28;20036;-82
2022/05/12 02:48:42;;;;;;;17.30;3.10;;;;;;;5.38;100.00;101083.56;5045161;28;20028;-81
2022/05/12 02:51:08;;;;;;;13.02;2.55;;;;;;;5.50;100.00;101082.44;5055224;28;20032;-81
2022/05/12 02:53:34;;;;;;;13.00;2.72;;;;;;;5.66;100.00;101087.28;5059206;28;20029;-82
2022/05/12 02:56:03;;;;;;;22.60;3.55;;;;;;;5.71;100.00;101080.56;5032006;28;20120;-81
2022/05/12 02:58:28;;;;;;;21.25;3.10;;;;;;;5.80;100.00;101092.25;5029225;28;20075;-83
2022/05/12 03:00:54;;;;;;;21.70;3.25;;;;;;;5.87;100.00;101089.88;5042815;28;20040;-82
2022/05/12 03:03:20;;;;;;;18.02;2.40;;;;;;;5.93;100.00;101095.56;5029857;28;20037;-82
2022/05/12 03:05:46;;;;;;;5.22;1.67;;;;;;;5.96;100.00;101094.44;5046696;28;20029;-82
2022/05/12 03:08:12;;;;;;;16.42;2.72;;;;;;;5.98;100.00;101100.47;5059435;28;20032;-82
2022/05/12 03:10:38;;;;;;;11.43;2.38;;;;;;;5.98;100.00;101095.16;5012872;28;20028;-82
2022/05/12 03:13:05;;;;;;;18.05;2.42;;;;;;;5.92;100.00;101082.28;5029647;28;20123;-83
2022/05/12 03:15:31;;;;;;;13.18;1.98;;;;;;;5.90;100.00;101090.47;5045543;28;20060;-83
2022/05/12 03:17:58;;;;;;;15.32;3.20;;;;;;;5.80;100.00;101089.59;5012925;28;20036;-82
2022/05/12 03:20:28;;;;;;;10.00;2.10;;;;;;;5.75;100.00;101094.50;5046407;28;20072;-82
2022/05/12 03:22:53;;;;;;;7.95;2.08;;;;;;;5.72;100.00;101090.28;5044207;28;20045;-83
2022/05/12 03:25:22;;;;;;;15.52;2.58;;;;;;;5.74;100.00;101082.09;5028518;28;20075;-84
2022/05/12 03:27:47;;;;;;;9.95;2.78;;;;;;;5.58;100.00;101063.94;5031562;28;20028;-81
2022/05/12 03:30:18;;;;;;;8.23;2.30;;;;;;;5.61;100.00;101087.72;5056799;28;20032;-84
2022/05/12 03:32:47;;;;;;;5.07;2.22;;;;;;;5.56;100.00;101078.41;5051144;28;20075;-84
2022/05/12 03:35:13;;;;;;;12.57;2.60;;;;;;;5.42;100.00;101059.13;5047046;28;20037;-81
2022/05/12 03:37:39;;;;;;;14.00;3.45;;;;;;;5.59;100.00;101084.31;5050182;28;20071;-84
2022/05/12 03:40:06;;;;;;;10.20;3.65;;;;;;;5.62;100.00;101075.22;5013843;28;20044;-84
2022/05/12 03:42:32;;;;;;;13.10;2.60;;;;;;;5.70;100.00;101080.72;5015863;28;20059;-84
2022/05/12 03:44:59;;;;;;;11.30;3.83;;;;;;;5.76;100.00;101072.16;5044199;28;20142;-83
2022/05/12 03:47:33;;;;;;;8.38;2.45;;;;;;;5.81;100.00;101087.75;5015166;28;20041;-84
2022/05/12 03:50:02;;;;;;;8.88;2.50;;;;;;;5.77;100.00;101083.66;5047883;28;20033;-82
2022/05/12 03:52:28;;;;;;;11.15;2.45;;;;;;;5.83;100.00;101083.13;5023531;28;20102;-83
2022/05/12 03:54:54;;;;;;;11.63;2.70;;;;;;;5.78;100.00;101069.34;5013134;28;20036;-83
2022/05/12 03:57:25;;;;;;;7.72;3.00;;;;;;;5.94;100.00;101085.72;5042666;28;20046;-84
2022/05/12 03:59:50;;;;;;;13.52;2.65;;;;;;;5.89;100.00;101077.25;5049780;28;20021;-83
2022/05/12 04:02:18;;;;;;;11.93;2.80;;;;;;;5.98;100.00;101072.91;5043131;28;20047;-83
2022/05/12 04:04:46;;;;;;;11.35;2.22;;;;;;;5.96;100.00;101075.75;5025662;28;20033;-83
2022/05/12 04:07:13;;;;;;;12.15;2.75;;;;;;;5.91;100.00;101070.78;5030851;28;20033;-83
2022/05/12 04:09:39;;;;;;;6.20;2.00;;;;;;;5.98;100.00;101083.59;5034275;28;20545;-83
2022/05/12 04:12:09;;;;;;;8.02;2.50;;;;;;;5.97;100.00;101076.59;5049321;28;20047;-82
2022/05/12 04:14:35;;;;;;;6.97;2.08;;;;;;;5.98;100.00;101070.25;5048671;28;20928;-81
2022/05/12 04:17:01;;;;;;;7.60;2.10;;;;;;;5.93;100.00;101076.88;5070096;28;20024;-83
2022/05/12 04:19:28;;;;;;;6.35;2.25;;;;;;;5.93;100.00;101082.19;5055410;28;20026;-82
2022/05/12 04:21:54;;;;;;;11.23;2.13;;;;;;;5.82;100.00;101065.41;5026766;28;20072;-83
2022/05/12 04:24:20;;;;;;;14.85;3.10;;;;;;;5.91;100.00;101084.13;5019344;28;20040;-82
2022/05/12 04:26:46;;;;;;;7.10;2.58;;;;;;;5.91;100.00;101075.28;5046050;28;20398;-82
2022/05/12 04:29:12;;;;;;;11.73;2.78;;;;;;;5.98;100.00;101080.94;5048007;28;20037;-83
2022/05/12 04:31:39;;;;;;;9.02;3.03;;;;;;;5.98;100.00;101067.59;5046961;28;20108;-83
2022/05/12 04:36:49;;;;;;;11.35;2.75;;;;;;;6.27;100.00;101081.81;5043102;28;20968;-84
2022/05/12 04:39:15;;;;;;;15.93;3.13;;;;;;;6.42;100.00;101092.91;5072075;28;20486;-83
2022/05/12 04:41:41;;;;;;;11.50;2.90;;;;;;;6.48;100.00;101095.00;5029008;28;20032;-82
2022/05/12 04:44:07;;;;;;;9.77;2.33;;;;;;;6.58;100.00;101079.81;5030314;28;20043;-83
2022/05/12 04:46:34;;;;;;;12.05;2.45;;;;;;;6.71;100.00;101073.34;5028041;28;20033;-81
2022/05/12 04:49:00;;;;;;;15.73;2.90;;;;;;;6.83;100.00;101078.41;5045720;28;20490;-82
2022/05/12 04:51:26;;;;;;;7.03;2.08;;;;;;;6.91;100.00;101071.50;5046252;28;20029;-82
2022/05/12 04:53:52;;;;;;;7.40;2.38;;;;;;;6.99;100.00;101080.47;5046063;28;20083;-82
2022/05/12 04:56:18;;;;;;;16.63;2.60;;;;;;;7.05;100.00;101071.03;5043590;28;20040;-81
2022/05/12 04:58:43;;;;;;;20.25;3.70;;;;;;;7.10;100.00;101066.09;5031077;28;20106;-83
2022/05/12 05:01:09;;;;;;;16.60;2.58;;;;;;;7.16;100.00;101076.19;5014118;28;20043;-83
2022/05/12 05:03:34;;;;;;;10.88;2.45;;;;;;;7.07;100.00;101063.72;5013061;28;20035;-82
2022/05/12 05:06:00;;;;;;;11.55;2.40;;;;;;;7.27;100.00;101083.19;5045298;28;20083;-83
2022/05/12 05:08:26;;;;;;;15.52;3.45;;;;;;;7.32;100.00;101072.91;5027357;28;20132;-83
2022/05/12 05:10:55;;;;;;;19.63;3.63;;;;;;;7.43;100.00;101080.72;5045257;28;20040;-83
2022/05/12 05:13:22;;;;;;;22.63;4.05;;;;;;;7.46;100.00;101075.13;5014319;28;20033;-83
2022/05/12 05:15:50;;;;;;;13.75;2.50;;;;;;;7.54;100.00;101074.38;5035049;28;20104;-82
2022/05/12 05:18:18;;;;;;;8.85;1.83;;;;;;;7.54;100.00;101057.44;5053938;28;20122;-83
2022/05/12 05:20:46;;;;;;;17.90;3.25;;;;;;;7.69;100.00;101075.53;5035289;28;20037;-83
2022/05/12 05:23:15;;;;;;;16.77;3.28;;;;;;;7.69;100.00;101078.22;5031773;28;20501;-83
2022/05/12 05:25:42;;;;;;;11.10;2.90;;;;;;;7.83;100.00;101094.75;5012471;28;20478;-82
2022/05/12 05:28:13;;;;;;;9.50;2.70;;;;;;;7.88;100.00;101093.31;5046970;28;20448;-83
2022/05/12 05:30:39;;;;;;;17.88;3.22;;;;;;;7.95;100.00;101098.09;5027446;28;20029;-84
2022/05/12 05:33:07;;;;;;;8.82;2.95;;;;;;;7.95;100.00;101095.41;5055874;28;20544;-85
2022/05/12 05:35:34;;;;;;;18.10;4.22;;;;;;;8.04;100.00;101094.50;5030696;28;20549;-84
2022/05/12 05:38:01;;;;;;;19.45;4.38;;;;;;;8.12;100.00;101102.63;5043441;28;20032;-83
2022/05/12 05:40:30;;;;;;;17.33;4.45;;;;;;;8.15;100.00;101105.03;5046661;28;20051;-82
2022/05/12 05:42:56;;;;;;;14.10;3.95;;;;;;;8.22;100.00;101103.41;5041476;28;20041;-83
2022/05/12 05:45:23;;;;;;;11.57;3.50;;;;;;;8.25;100.00;101094.22;5039958;28;20036;-81
2022/05/12 05:47:51;;;;;;;16.30;3.60;;;;;;;8.30;100.00;101102.63;5041190;28;20033;-83
2022/05/12 05:50:20;;;;;;;15.35;4.20;;;;;;;8.25;100.00;101096.88;5042496;28;20086;-82
2022/05/12 05:55:32;;;;;;;15.32;3.50;;;;;;;8.21;100.00;101082.97;5049445;28;20394;-83
2022/05/12 05:58:00;;;;;;;14.25;3.30;;;;;;;8.46;100.00;101100.13;5017562;28;20102;-82
2022/05/12 06:00:25;;;;;;;14.30;4.30;;;;;;;8.51;100.00;101081.75;5046430;28;20508;-84
2022/05/12 06:02:52;;;;;;;12.07;3.05;;;;;;;8.43;100.00;101062.09;5045184;28;20122;-84
2022/05/12 06:05:18;;;;;;;16.63;3.35;;;;;;;8.68;100.00;101085.44;5027850;28;20021;-83
2022/05/12 06:07:44;;;;;;;9.15;3.50;;;;;;;8.52;100.00;101061.16;5045954;28;20547;-83
2022/05/12 06:10:11;;;;;;;7.53;2.03;;;;;;;8.70;100.00;101086.09;5038520;28;20363;-84
2022/05/12 06:12:37;;;;;;;10.75;2.88;;;;;;;8.86;100.00;101092.59;5019885;28;20064;-85
2022/05/12 06:15:04;;;;;;;13.15;3.60;;;;;;;8.91;100.00;101101.00;5034429;28;20496;-85
2022/05/12 06:17:30;;;;;;;16.65;4.07;;;;;;;8.87;100.00;101091.59;5048004;28;20099;-84
2022/05/12 06:19:56;;;;;;;12.90;3.17;;;;;;;8.92;100.00;101097.34;5056934;28;20021;-84
2022/05/12 06:22:21;;;;;;;12.65;3.05;;;;;;;8.98;100.00;101105.59;5015552;28;20052;-83
2022/05/12 06:24:47;;;;;;;12.43;2.60;;;;;;;8.92;100.00;101082.09;5050853;28;20060;-84
2022/05/12 06:27:14;;;;;;;22.38;3.40;;;;;;;9.15;100.00;101106.53;5042335;28;20083;-86
2022/05/12 06:29:56;;;;;;;11.73;4.78;;;;;;;9.32;100.00;101112.84;5020149;28;20056;-85
2022/05/12 06:32:37;;;;;;;7.53;2.58;;;;;;;9.43;100.00;101126.00;5045468;28;20033;-82
2022/05/12 06:35:03;;;;;;;12.00;2.60;;;;;;;9.49;100.00;101115.63;5025740;28;20025;-81
2022/05/12 06:37:32;;;;;;;11.13;2.90;;;;;;;9.50;100.00;101112.78;5040157;28;20418;-82
2022/05/12 06:40:01;;;;;;;15.55;3.28;;;;;;;9.57;100.00;101113.81;5021514;28;20051;-84
2022/05/12 06:42:27;;;;;;;7.95;2.70;;;;;;;9.64;100.00;101117.56;5040258;28;20033;-83
2022/05/12 06:45:08;;;;;;;9.68;3.25;;;;;;;9.62;100.00;101103.44;5045541;28;20104;-84
2022/05/12 06:47:33;;;;;;;13.30;3.22;;;;;;;9.84;100.00;101118.16;5048581;28;20028;-85
2022/05/12 06:50:01;;;;;;;14.75;3.53;;;;;;;10.08;100.00;101119.19;5039338;28;20036;-83
2022/05/12 06:52:28;;;;;;;11.25;3.28;;;;;;;10.36;100.00;101119.81;5041783;28;20064;-85
2022/05/12 06:54:53;;;;;;;14.90;3.65;;;;;;;10.95;100.00;101125.88;5047944;28;20029;-83
2022/05/12 06:57:27;;;;;;;10.23;2.58;;;;;;;11.45;100.00;101105.94;5040375;28;20028;-81
2022/05/12 06:59:54;;;;;;;11.98;3.00;;;;;;;12.76;94.60;101113.31;5015066;28;20085;-83
2022/05/12 07:02:20;;;;;;;9.10;2.72;;;;;;;13.09;90.57;101095.97;5031990;28;20497;-83
2022/05/12 07:04:46;;;;;;;13.80;2.40;;;;;;;12.85;89.58;101078.16;5047768;28;20029;-82
2022/05/12 07:07:13;;;;;;;11.98;3.45;;;;;;;13.14;88.38;101109.78;5052536;28;20024;-82
2022/05/12 07:09:39;;;;;;;9.40;2.40;;;;;;;14.88;80.15;101103.56;5044445;28;20044;-85
2022/05/12 07:12:05;;;;;;;8.43;2.88;;;;;;;15.88;74.88;101089.81;5045849;28;20382;-83
2022/05/12 07:14:31;;;;;;;6.78;2.80;;;;;;;16.73;70.60;101106.53;5013412;28;20395;-83
2022/05/12 07:16:58;;;;;;;10.25;2.00;;;;;;;17.25;66.11;101113.84;5021794;28;20130;-84
2022/05/12 07:19:24;;;;;;;9.77;4.07;;;;;;;17.47;65.23;101103.56;5052667;28;20074;-83
2022/05/12 07:27:18;;;;;;;10.20;4.03;;;;;;;18.44;59.94;101104.41;5043640;28;20025;-82
2022/05/12 07:29:44;;;;;;;10.18;2.70;;;;;;;19.08;56.88;101088.03;5052871;28;20555;-81
2022/05/12 07:32:10;;;;;;;9.27;2.50;;;;;;;19.15;56.02;101105.13;5040160;28;20561;-84
2022/05/12 07:34:36;;;;;;;10.77;2.80;;;;;;;17.10;61.57;101118.69;5043515;28;20044;-84
2022/05/12 07:37:03;;;;;;;11.13;2.72;;;;;;;15.45;66.60;101104.38;5023747;28;20037;-84
2022/05/12 07:39:30;;;;;;;9.90;2.80;;;;;;;14.40;71.99;101105.19;5023374;28;20070;-82
2022/05/12 07:41:57;;;;;;;14.80;3.53;;;;;;;13.66;75.28;101108.06;5044077;28;21112;-82
2022/05/12 07:44:31;;;;;;;10.60;2.97;;;;;;;13.15;76.43;101100.63;5046428;28;20123;-81
2022/05/12 07:47:02;;;;;;;12.75;3.60;;;;;;;12.92;77.25;101112.34;5028187;28;20463;-83
2022/05/12 07:49:31;;;;;;;10.38;3.17;;;;;;;12.84;78.11;101112.41;5025042;28;20091;-77
2022/05/12 07:52:44;;;;;;;12.40;3.33;;;;;;;12.97;78.10;101112.63;5044495;28;20033;-83
2022/05/12 07:55:27;;;;;;;7.00;2.50;;;;;;;12.98;75.81;101036.03;5038051;28;20048;-84
2022/05/12 07:57:52;;;;;;;9.90;3.08;;;;;;;15.53;65.36;101043.75;5043134;28;20045;-82
2022/05/12 08:00:21;;;;;;;21.52;5.05;;;;;;;17.78;57.66;101070.19;5032018;28;20414;-80
2022/05/12 08:02:47;;;;;;;12.73;4.43;;;;;;;19.62;51.14;101094.56;5027978;28;20368;-86
2022/05/12 08:05:12;;;;;;;19.13;4.40;;;;;;;19.39;50.64;101088.94;5044730;28;20086;-80
2022/05/12 08:07:38;;;;;;;6.90;2.50;;;;;;;18.76;50.71;101095.41;5046176;28;20041;-82
2022/05/12 08:10:05;;;;;;;6.10;2.22;;;;;;;17.98;53.14;101102.78;5031103;28;20397;-80
2022/05/12 08:12:34;;;;;;;9.57;3.13;;;;;;;18.31;51.83;101100.91;5046100;28;20128;-80
2022/05/12 08:15:00;;;;;;;9.75;3.13;;;;;;;18.43;51.42;101102.72;5046976;28;20115;-80
2022/05/12 08:17:26;;;;;;;8.50;2.88;;;;;;;20.02;48.85;101113.22;5041106;28;20119;-83
2022/05/12 08:19:51;;;;;;;8.05;2.50;;;;;;;21.31;44.48;101109.97;5055416;28;20029;-81
2022/05/12 08:22:17;;;;;;;19.52;3.15;;;;;;;21.41;43.05;101103.94;5049637;28;20039;-81
2022/05/12 08:24:43;;;;;;;13.18;3.25;;;;;;;18.31;50.65;101109.94;5047244;28;20112;-80
2022/05/12 08:27:08;;;;;;;9.70;3.53;;;;;;;19.40;49.91;101107.00;5048612;28;20036;-81
2022/05/12 08:29:34;;;;;;;11.23;3.85;;;;;;;21.37;44.29;101108.19;5051517;28;20532;-81
2022/05/12 08:31:59;;;;;;;12.57;4.50;;;;;;;22.68;40.52;101104.81;5046994;28;21000;-80
2022/05/12 08:34:25;;;;;;;9.30;2.80;;;;;;;23.09;39.31;101108.25;5015751;28;20389;-79
2022/05/12 08:36:50;;;;;;;10.25;3.30;;;;;;;22.34;39.88;101104.78;5044117;28;20044;-80
2022/05/12 08:39:22;;;;;;;7.53;2.60;;;;;;;19.68;44.07;101101.03;5046238;28;20119;-85
2022/05/12 08:41:55;;;;;;;3.92;2.83;;;;;;;18.13;46.93;101093.50;5025481;28;20029;-86
2022/05/12 08:44:22;;;;;;;7.65;3.10;;;;;;;18.23;47.62;101099.28;5022592;28;20028;-82
2022/05/12 08:47:01;;;;;;;4.78;2.45;;;;;;;18.49;48.08;101101.00;5018038;28;20064;-84
2022/05/12 08:49:30;;;;;;;5.35;2.33;;;;;;;19.85;45.28;101099.38;5035424;28;20045;-83
2022/05/12 08:52:20;;;;;;;7.78;2.38;;;;;;;20.41;42.78;101097.34;5059779;28;20055;-83
2022/05/12 08:54:58;;;;;;;8.00;3.55;;;;;;;20.61;42.41;101097.06;5044726;28;20045;-82
2022/05/12 08:57:33;;;;;;;3.10;1.83;;;;;;;21.56;40.24;101096.06;5054758;28;20039;-83
2022/05/12 09:00:01;;;;;;;8.25;2.67;;;;;;;20.46;41.93;101094.75;5026616;28;20032;-83
2022/05/12 09:02:26;;;;;;;6.28;2.33;;;;;;;19.21;45.43;101097.94;5045930;28;20056;-82
2022/05/12 09:05:11;;;;;;;4.68;2.20;;;;;;;17.99;48.90;101087.28;5043508;28;20028;-83
2022/05/12 09:07:51;;;;;;;6.43;1.90;;;;;;;18.10;49.01;101058.53;5022360;28;20040;-83
2022/05/12 09:10:26;;;;;;;6.05;1.70;;;;;;;18.20;49.65;101086.13;5050639;28;20044;-83
2022/05/12 09:12:59;;;;;;;3.53;1.45;;;;;;;17.65;50.08;101083.00;5048595;28;20099;-83
2022/05/12 09:15:27;;;;;;;7.25;1.67;;;;;;;17.28;52.13;101098.97;5048346;28;20036;-82
2022/05/12 09:18:04;;;;;;;6.13;2.00;;;;;;;17.10;52.82;101092.34;5044989;28;20041;-83
2022/05/12 09:20:34;;;;;;;10.82;2.58;;;;;;;17.47;52.67;101079.09;5015778;28;20108;-83
2022/05/12 09:23:00;;;;;;;6.95;1.73;;;;;;;17.71;51.42;101082.16;5053941;28;20025;-83
2022/05/12 09:25:41;;;;;;;5.38;1.65;;;;;;;18.32;50.24;101076.22;5026356;28;20071;-82
2022/05/12 09:28:23;;;;;;;6.28;1.70;;;;;;;19.04;47.68;101073.16;5004420;28;20029;-81
2022/05/12 09:30:55;;;;;;;3.50;1.70;;;;;;;19.37;46.78;101080.16;5022755;28;20041;-82
2022/05/12 09:33:30;;;;;;;5.15;1.55;;;;;;;20.53;42.87;101075.50;5009824;28;20048;-85
2022/05/12 09:36:02;;;;;;;5.32;1.83;;;;;;;19.23;44.44;101077.56;5043912;28;20134;-83
2022/05/12 09:38:28;;;;;;;5.55;1.58;;;;;;;17.80;47.93;101067.28;5036818;28;20059;-82
2022/05/12 09:40:54;;;;;;;7.90;1.70;;;;;;;16.91;51.14;101055.16;5024452;28;20067;-84
2022/05/12 09:43:32;;;;;;;2.58;1.27;;;;;;;16.56;53.15;101074.31;5033176;28;20025;-82
2022/05/12 09:46:30;;;;;;;2.75;1.20;;;;;;;16.22;52.27;101078.88;5046615;28;20728;-83
2022/05/12 09:49:16;;;;;;;3.72;2.03;;;;;;;17.49;51.13;101073.44;5043321;28;20033;-86
2022/05/12 09:51:41;;;;;;;10.27;3.08;;;;;;;18.70;48.36;101060.84;5029678;28;20044;-84
2022/05/12 09:54:25;;;;;;;6.15;2.33;;;;;;;18.53;47.59;101075.03;5036471;28;20148;-84
2022/05/12 09:57:22;;;;;;;3.90;1.67;;;;;;;17.21;51.31;101076.44;5029231;28;20082;-83
2022/05/12 09:59:53;;;;;;;7.20;2.00;;;;;;;16.40;55.01;101070.13;5023270;28;21529;-82
2022/05/12 10:07:53;;;;;;;3.67;1.65;;;;;;;17.62;53.04;101072.56;5027432;28;20470;-83
2022/05/12 10:08:16;;;;;;;3.40;1.40;;;;;;;18.93;48.34;101072.00;5041748;28;20040;-84
2022/05/12 10:10:42;;;;;;;1.90;1.33;;;;;;;18.71;48.58;101071.53;5045573;28;20455;-83
2022/05/12 10:13:30;;;;;;;2.00;1.20;;;;;;;18.56;46.70;101068.31;5011916;28;20136;-85
2022/05/12 10:15:56;;;;;;;3.22;1.27;;;;;;;17.52;49.66;101062.16;5051533;28;20037;-85
2022/05/12 10:18:40;;;;;;;7.55;1.90;;;;;;;16.30;53.33;101061.59;5047615;28;20033;-84
2022/05/12 10:21:14;;;;;;;3.65;1.00;;;;;;;15.41;56.94;101067.06;5034126;28;20029;-84
2022/05/12 10:23:43;;;;;;;2.47;1.38;;;;;;;15.01;58.16;101056.81;5052479;28;20033;-83
2022/05/12 10:26:20;;;;;;;2.83;1.20;;;;;;;15.32;58.67;101056.41;5051310;28;20052;-86
2022/05/12 10:29:07;;;;;;;2.35;1.00;;;;;;;15.81;58.25;101068.94;5051658;28;20490;-86
2022/05/12 10:31:57;;;;;;;5.20;1.45;;;;;;;16.62;56.89;101051.81;5026180;28;20033;-84
2022/05/12 10:34:27;;;;;;;5.72;2.03;;;;;;;17.98;52.40;101045.63;5051395;28;20132;-84
2022/05/12 10:37:17;;;;;;;3.85;1.70;;;;;;;19.02;48.90;101050.75;5033465;28;20044;-83
2022/05/12 10:40:25;;;;;;;5.63;2.15;;;;;;;18.79;48.43;101043.22;5052911;28;20040;-85
2022/05/12 10:42:58;;;;;;;8.32;3.25;;;;;;;18.43;48.04;101042.84;5000007;28;20472;-81
2022/05/12 10:45:32;;;;;;;4.00;2.80;;;;;;;18.46;48.50;101047.84;5032448;28;20036;-84
2022/05/12 10:48:10;;;;;;;5.63;2.97;;;;;;;18.88;47.38;101036.41;5052049;28;20033;-84
2022/05/12 10:50:49;;;;;;;3.67;1.73;;;;;;;19.40;46.14;101020.56;5053034;28;20067;-85
2022/05/12 10:53:44;;;;;;;4.30;2.08;;;;;;;18.66;48.73;101034.06;5050684;28;20187;-83
2022/05/12 10:56:34;;;;;;;3.85;1.40;;;;;;;17.67;50.31;101030.06;5011261;28;20049;-84
2022/05/12 10:59:21;;;;;;;2.67;1.50;;;;;;;16.90;52.89;101032.59;5022875;28;20704;-83
2022/05/12 11:01:52;;;;;;;1.73;1.30;;;;;;;16.69;55.29;101033.59;5031381;28;20051;-85
2022/05/12 11:04:43;;;;;;;2.53;1.27;;;;;;;16.78;55.18;101037.00;5046361;28;20029;-84
2022/05/12 11:07:25;;;;;;;3.97;1.70;;;;;;;16.84;55.13;101021.75;5023632;28;20114;-83
2022/05/12 11:10:03;;;;;;;3.25;1.55;;;;;;;17.84;52.65;101021.47;5036484;28;20522;-84
2022/05/12 11:12:43;;;;;;;3.50;1.70;;;;;;;19.08;48.41;101022.59;5021065;28;20430;-84
2022/05/12 11:15:12;;;;;;;2.03;1.83;;;;;;;20.84;44.80;101012.38;5026494;28;20490;-84
2022/05/12 11:17:53;;;;;;;2.88;1.30;;;;;;;22.92;40.02;101013.09;5048641;28;20127;-83
2022/05/12 11:20:31;;;;;;;4.10;1.27;;;;;;;22.10;40.64;100999.94;5043371;28;20051;-84
2022/05/12 11:23:16;;;;;;;2.28;0.85;;;;;;;20.73;43.48;101009.66;5044478;28;20106;-83
2022/05/12 11:26:04;;;;;;;2.35;1.10;;;;;;;20.06;45.00;101004.38;5010637;28;20047;-83
2022/05/12 11:31:24;;;;;;;5.43;1.25;;;;;;;18.68;47.00;101002.00;5039450;28;20072;-82
2022/05/12 11:33:55;;;;;;;2.50;0.90;;;;;;;17.95;49.19;100999.81;5043451;28;21069;-86
2022/05/12 11:36:21;;;;;;;0.88;0.80;;;;;;;17.42;51.66;100993.78;5052534;28;20028;-85
2022/05/12 11:38:53;;;;;;;3.20;1.33;;;;;;;17.03;53.90;100999.13;5029210;28;20478;-84
2022/05/12 11:41:30;;;;;;;1.80;0.93;;;;;;;16.69;53.68;100992.06;5013109;28;20029;-85
2022/05/12 11:44:34;;;;;;;1.42;0.90;;;;;;;16.82;56.91;101012.97;5045140;28;20025;-82
2022/05/12 11:47:09;;;;;;;2.92;1.17;;;;;;;16.99;58.26;101014.19;5068012;28;20133;-82
2022/05/12 11:49:43;;;;;;;2.50;1.00;;;;;;;17.07;59.38;101007.72;5043074;28;20041;-83
2022/05/12 11:52:40;;;;;;;3.42;0.98;;;;;;;16.81;58.71;100995.00;5029413;28;20112;-85